createdAt,value
2023-02-04T00:00:55.338Z,4.68
2023-02-04T00:03:41.196Z,4.66
2023-02-04T00:06:27.151Z,4.58
2023-02-04T00:09:16.297Z,4.54
2023-02-04T00:12:02.420Z,4.50
2023-02-04T00:14:48.066Z,4.42
2023-02-04T00:17:33.881Z,4.32
2023-02-04T00:20:19.795Z,4.24
2023-02-04T00:23:07.262Z,4.15
2023-02-04T00:25:54.725Z,4.11
2023-02-04T00:28:40.597Z,4.09
2023-02-04T00:31:26.745Z,4.04
2023-02-04T00:34:13.247Z,4.03
2023-02-04T00:36:59.113Z,3.96
2023-02-04T00:39:45.324Z,3.92
2023-02-04T00:42:32.438Z,3.87
2023-02-04T00:45:18.280Z,3.87
2023-02-04T00:48:03.991Z,3.83
2023-02-04T00:50:49.827Z,3.75
2023-02-04T00:53:35.647Z,3.68
2023-02-04T00:56:21.429Z,3.68
2023-02-04T00:59:08.993Z,3.62
2023-02-04T01:01:55.062Z,3.58
2023-02-04T01:04:40.842Z,3.56
2023-02-04T01:07:26.687Z,3.52
2023-02-04T01:10:12.813Z,3.50
2023-02-04T01:12:58.611Z,3.48
2023-02-04T01:15:47.843Z,3.46
2023-02-04T01:18:34.374Z,3.41
2023-02-04T01:21:20.204Z,3.34
2023-02-04T01:24:06.011Z,3.35
2023-02-04T01:27:11.851Z,3.34
2023-02-04T01:29:57.731Z,3.34
2023-02-04T01:32:44.802Z,3.33
2023-02-04T01:35:30.459Z,3.30
2023-02-04T01:38:16.329Z,3.26
2023-02-04T01:41:02.624Z,3.23
2023-02-04T01:43:48.605Z,3.22
2023-02-04T01:46:37.286Z,3.17
2023-02-04T01:49:24.304Z,3.15
2023-02-04T01:52:10.298Z,3.17
2023-02-04T01:54:56.101Z,3.13
2023-02-04T01:57:42.428Z,3.13
2023-02-04T02:00:29.657Z,3.10
2023-02-04T02:03:16.044Z,3.09
2023-02-04T02:06:03.076Z,3.08
2023-02-04T02:08:48.840Z,3.08
2023-02-04T02:11:35.092Z,3.08
2023-02-04T02:14:22.432Z,3.10
2023-02-04T02:17:09.756Z,3.11
2023-02-04T02:19:55.792Z,3.12
2023-02-04T02:22:44.990Z,3.13
2023-02-04T02:25:32.201Z,3.14
2023-02-04T02:28:18.901Z,3.15
2023-02-04T02:31:05.017Z,3.18
2023-02-04T02:33:51.445Z,3.21
2023-02-04T02:36:37.825Z,3.25
2023-02-04T02:39:23.577Z,3.26
2023-02-04T02:42:11.439Z,3.27
2023-02-04T02:44:57.592Z,3.29
2023-02-04T02:47:43.407Z,3.29
2023-02-04T02:50:30.276Z,3.32
2023-02-04T02:53:17.594Z,3.34
2023-02-04T02:56:05.367Z,3.36
2023-02-04T02:58:53.861Z,3.35
2023-02-04T03:01:39.677Z,3.38
2023-02-04T03:04:26.613Z,3.40
2023-02-04T03:07:12.773Z,3.36
2023-02-04T03:09:58.967Z,3.36
2023-02-04T03:12:44.902Z,3.41
2023-02-04T03:15:32.518Z,3.38
2023-02-04T03:18:20.456Z,3.37
2023-02-04T03:21:06.643Z,3.33
2023-02-04T03:23:56.352Z,3.35
2023-02-04T03:26:42.679Z,3.36
2023-02-04T03:29:29.892Z,3.31
2023-02-04T03:32:17.917Z,3.33
2023-02-04T03:35:03.923Z,3.34
2023-02-04T03:37:49.710Z,3.30
2023-02-04T03:40:35.560Z,3.32
2023-02-04T03:43:21.332Z,3.34
2023-02-04T03:46:07.388Z,3.37
2023-02-04T03:48:54.463Z,3.29
2023-02-04T03:51:40.197Z,3.33
2023-02-04T03:54:26.065Z,3.25
2023-02-04T03:57:11.830Z,3.21
2023-02-04T03:59:57.719Z,3.13
2023-02-04T04:02:43.581Z,3.03
2023-02-04T04:05:30.687Z,3.02
2023-02-04T04:08:16.589Z,2.86
2023-02-04T04:11:02.306Z,2.83
2023-02-04T04:13:48.046Z,2.66
2023-02-04T04:16:33.845Z,2.69
2023-02-04T04:19:19.500Z,2.68
2023-02-04T04:22:06.635Z,2.65
2023-02-04T04:24:52.545Z,2.60
2023-02-04T04:27:38.373Z,2.55
2023-02-04T04:30:24.093Z,2.47
2023-02-04T04:33:10.081Z,2.46
2023-02-04T04:35:56.500Z,2.46
2023-02-04T04:38:43.746Z,2.45
2023-02-04T04:41:29.469Z,2.41
2023-02-04T04:44:15.361Z,2.31
2023-02-04T04:47:01.353Z,2.35
2023-02-04T04:49:47.211Z,2.34
2023-02-04T04:52:33.113Z,2.31
2023-02-04T04:55:20.167Z,2.27
2023-02-04T04:58:06.014Z,2.24
2023-02-04T05:00:51.917Z,2.17
2023-02-04T05:03:38.034Z,2.13
2023-02-04T05:06:25.335Z,2.11
2023-02-04T05:09:11.786Z,2.06
2023-02-04T05:11:59.077Z,1.99
2023-02-04T05:14:45.547Z,1.94
2023-02-04T05:17:31.478Z,1.86
2023-02-04T05:20:17.502Z,1.78
2023-02-04T05:23:05.393Z,1.72
2023-02-04T05:25:51.635Z,1.66
2023-02-04T05:28:38.706Z,1.61
2023-02-04T05:31:24.641Z,1.59
2023-02-04T05:34:10.458Z,1.56
2023-02-04T05:36:56.137Z,1.51
2023-02-04T05:39:42.043Z,1.46
2023-02-04T05:42:27.858Z,1.43
2023-02-04T05:45:16.056Z,1.37
2023-02-04T05:48:02.077Z,1.30
2023-02-04T05:50:47.789Z,1.25
2023-02-04T05:53:33.562Z,1.18
2023-02-04T05:56:19.417Z,1.09
2023-02-04T05:59:05.461Z,1.04
2023-02-04T06:01:52.462Z,0.99
2023-02-04T06:04:42.570Z,0.94
2023-02-04T06:07:29.801Z,0.88
2023-02-04T06:10:15.714Z,0.85
2023-02-04T06:13:01.504Z,0.80
2023-02-04T06:15:47.225Z,0.78
2023-02-04T06:18:36.623Z,0.73
2023-02-04T06:21:22.607Z,0.69
2023-02-04T06:24:08.458Z,0.64
2023-02-04T06:26:54.262Z,0.62
2023-02-04T06:29:39.999Z,0.58
2023-02-04T06:32:25.846Z,0.58
2023-02-04T06:35:13.103Z,0.53
2023-02-04T06:37:59.123Z,0.50
2023-02-04T06:40:44.817Z,0.50
2023-02-04T06:43:30.805Z,0.50
2023-02-04T06:46:16.956Z,0.47
2023-02-04T06:49:02.916Z,0.47
2023-02-04T06:51:50.485Z,0.45
2023-02-04T06:54:36.295Z,0.45
2023-02-04T06:57:22.133Z,0.44
2023-02-04T07:00:08.872Z,0.44
2023-02-04T07:02:56.673Z,0.42
2023-02-04T07:05:42.836Z,0.41
2023-02-04T07:08:29.980Z,0.38
2023-02-04T07:11:15.889Z,0.39
2023-02-04T07:14:01.881Z,0.36
2023-02-04T07:16:47.717Z,0.37
2023-02-04T07:19:33.765Z,0.38
2023-02-04T07:22:19.892Z,0.37
2023-02-04T07:25:07.426Z,0.37
2023-02-04T07:27:53.165Z,0.37
2023-02-04T07:30:39.235Z,0.37
2023-02-04T07:33:25.659Z,0.38
2023-02-04T07:36:11.410Z,0.40
2023-02-04T07:38:57.273Z,0.39
2023-02-04T07:41:44.406Z,0.39
2023-02-04T07:44:32.138Z,0.38
2023-02-04T07:47:17.936Z,0.38
2023-02-04T07:50:03.738Z,0.37
2023-02-04T07:52:49.471Z,0.40
2023-02-04T07:55:35.398Z,0.38
2023-02-04T07:58:22.750Z,0.38
2023-02-04T08:01:08.990Z,0.37
2023-02-04T08:03:55.362Z,0.37
2023-02-04T08:10:54.615Z,0.36
2023-02-04T08:13:41.737Z,0.36
2023-02-04T08:16:28.175Z,0.37
2023-02-04T08:19:18.740Z,0.36
2023-02-04T08:22:04.709Z,0.38
2023-02-04T08:24:50.510Z,0.38
2023-02-04T08:27:36.349Z,0.38
2023-02-04T08:30:23.847Z,0.36
2023-02-04T08:33:09.590Z,0.36
2023-02-04T08:35:55.325Z,0.40
2023-02-04T08:38:41.450Z,0.43
2023-02-04T08:41:27.512Z,0.45
2023-02-04T08:44:13.295Z,0.50
2023-02-04T08:47:00.364Z,0.51
2023-02-04T08:49:46.273Z,0.55
2023-02-04T08:52:32.229Z,0.57
2023-02-04T08:55:18.008Z,0.60
2023-02-04T08:58:03.873Z,0.66
2023-02-04T09:00:49.672Z,0.70
2023-02-04T09:03:36.713Z,0.89
2023-02-04T09:06:22.494Z,1.01
2023-02-04T09:09:08.281Z,1.14
2023-02-04T09:11:54.192Z,1.26
2023-02-04T09:14:40.502Z,1.35
2023-02-04T09:17:26.186Z,1.48
2023-02-04T09:20:13.695Z,1.64
2023-02-04T09:22:59.590Z,1.76
2023-02-04T09:25:45.834Z,1.92
2023-02-04T09:28:32.098Z,2.12
2023-02-04T09:31:18.838Z,2.29
2023-02-04T09:34:05.047Z,2.40
2023-02-04T09:36:52.232Z,2.49
2023-02-04T09:39:37.936Z,2.53
2023-02-04T09:42:24.346Z,2.64
2023-02-04T09:45:12.283Z,2.83
2023-02-04T09:47:58.835Z,2.93
2023-02-04T09:50:45.172Z,3.10
2023-02-04T09:53:32.720Z,3.22
2023-02-04T09:56:19.253Z,3.42
2023-02-04T09:59:05.387Z,3.62
2023-02-04T10:01:53.430Z,3.79
2023-02-04T10:04:39.339Z,3.97
2023-02-04T10:07:26.694Z,4.07
2023-02-04T10:10:16.101Z,4.29
2023-02-04T10:13:03.759Z,4.34
2023-02-04T10:15:49.690Z,4.40
2023-02-04T10:18:36.010Z,4.47
2023-02-04T10:21:22.430Z,4.46
2023-02-04T10:24:11.554Z,4.46
2023-02-04T10:27:07.493Z,4.47
2023-02-04T10:29:58.130Z,4.51
2023-02-04T10:32:45.295Z,4.54
2023-02-04T10:35:31.012Z,4.47
2023-02-04T10:38:16.878Z,4.52
2023-02-04T10:41:03.041Z,4.66
2023-02-04T10:43:48.914Z,4.84
2023-02-04T10:46:35.971Z,4.92
2023-02-04T10:49:22.503Z,5.05
2023-02-04T10:52:15.251Z,5.13
2023-02-04T10:55:01.020Z,5.23
2023-02-04T10:57:47.965Z,5.06
2023-02-04T11:00:34.171Z,5.01
2023-02-04T11:03:22.630Z,4.89
2023-02-04T11:06:11.223Z,4.81
2023-02-04T11:08:57.157Z,4.87
2023-02-04T11:11:46.217Z,4.96
2023-02-04T11:14:32.495Z,5.03
2023-02-04T11:17:20.635Z,5.09
2023-02-04T11:20:17.952Z,5.01
2023-02-04T11:23:15.056Z,4.97
2023-02-04T11:26:13.153Z,5.06
2023-02-04T11:29:19.512Z,4.87
2023-02-04T11:32:06.304Z,4.93
2023-02-04T11:34:53.411Z,5.25
2023-02-04T11:37:41.386Z,5.42
2023-02-04T11:40:28.917Z,5.83
2023-02-04T11:43:15.925Z,6.21
2023-02-04T11:46:02.396Z,6.61
2023-02-04T11:48:48.188Z,6.84
2023-02-04T11:51:34.821Z,6.80
2023-02-04T11:54:23.499Z,6.51
2023-02-04T11:57:11.610Z,6.44
2023-02-04T11:59:57.556Z,6.20
2023-02-04T12:02:45.152Z,6.13
2023-02-04T12:05:36.444Z,6.25
2023-02-04T12:08:26.580Z,6.35
2023-02-04T12:11:25.795Z,6.33
2023-02-04T12:14:17.220Z,6.46
2023-02-04T12:17:13.381Z,6.39
2023-02-04T12:19:59.051Z,6.27
2023-02-04T12:22:44.847Z,6.27
2023-02-04T12:25:31.253Z,6.19
2023-02-04T12:28:19.192Z,6.19
2023-02-04T12:31:05.584Z,6.45
2023-02-04T12:33:54.078Z,6.36
2023-02-04T12:36:39.914Z,6.29
2023-02-04T12:39:25.802Z,6.70
2023-02-04T12:42:11.368Z,6.88
2023-02-04T12:44:58.605Z,7.15
2023-02-04T12:47:44.798Z,7.34
2023-02-04T12:50:30.522Z,7.68
2023-02-04T12:53:16.377Z,7.85
2023-02-04T12:56:02.588Z,8.01
2023-02-04T12:58:48.673Z,7.83
2023-02-04T13:01:35.826Z,8.15
2023-02-04T13:04:21.655Z,8.14
2023-02-04T13:07:07.981Z,8.23
2023-02-04T13:09:53.947Z,8.06
2023-02-04T13:12:39.729Z,8.09
2023-02-04T13:15:25.827Z,8.43
2023-02-04T13:18:12.893Z,8.59
2023-02-04T13:20:58.667Z,8.55
2023-02-04T13:23:44.511Z,8.28
2023-02-04T13:26:30.439Z,8.08
2023-02-04T13:29:16.206Z,7.66
2023-02-04T13:32:02.692Z,7.62
2023-02-04T13:34:50.095Z,7.57
2023-02-04T13:37:35.881Z,7.50
2023-02-04T13:40:21.976Z,7.60
2023-02-04T13:43:07.725Z,7.60
2023-02-04T13:45:53.480Z,7.56
2023-02-04T13:48:39.380Z,7.34
2023-02-04T13:51:26.879Z,7.40
2023-02-04T13:54:12.686Z,7.19
2023-02-04T13:56:58.504Z,7.05
2023-02-04T13:59:44.255Z,6.93
2023-02-04T14:02:30.212Z,6.79
2023-02-04T14:05:16.578Z,6.51
2023-02-04T14:08:03.992Z,6.47
2023-02-04T14:10:50.009Z,6.35
2023-02-04T14:13:35.710Z,6.36
2023-02-04T14:16:22.275Z,6.25
2023-02-04T14:19:09.250Z,6.05
2023-02-04T14:21:54.910Z,6.13
2023-02-04T14:24:42.666Z,6.14
2023-02-04T14:27:28.990Z,6.15
2023-02-04T14:30:16.851Z,6.20
2023-02-04T14:33:02.750Z,6.10
2023-02-04T14:35:48.979Z,6.03
2023-02-04T14:38:34.729Z,5.99
2023-02-04T14:41:21.829Z,6.03
2023-02-04T14:44:07.673Z,6.02
2023-02-04T14:46:53.932Z,5.93
2023-02-04T14:49:39.892Z,5.94
2023-02-04T14:52:25.667Z,5.87
2023-02-04T14:55:12.753Z,5.83
2023-02-04T14:58:00.103Z,5.72
2023-02-04T15:00:45.921Z,5.64
2023-02-04T15:03:31.650Z,5.62
2023-02-04T15:06:17.477Z,5.54
2023-02-04T15:09:03.166Z,5.44
2023-02-04T15:11:48.969Z,5.36
2023-02-04T15:14:36.122Z,5.33
2023-02-04T15:17:21.942Z,5.28
2023-02-04T15:20:09.022Z,5.23
2023-02-04T15:22:56.376Z,5.14
2023-02-04T15:25:42.278Z,5.11
2023-02-04T15:28:29.710Z,5.00
2023-02-04T15:31:17.109Z,4.90
2023-02-04T15:34:04.759Z,4.79
2023-02-04T15:36:51.982Z,4.78
2023-02-04T15:39:37.933Z,4.75
2023-02-04T15:42:23.710Z,4.69
2023-02-04T15:45:09.724Z,4.67
2023-02-04T15:47:56.950Z,4.58
2023-02-04T15:50:43.034Z,4.54
2023-02-04T15:53:28.893Z,4.52
2023-02-04T15:56:14.680Z,4.45
2023-02-04T15:59:02.392Z,4.39
2023-02-04T16:01:48.409Z,4.29
2023-02-04T16:04:35.487Z,4.24
2023-02-04T16:07:21.381Z,4.17
2023-02-04T16:10:07.825Z,4.14
2023-02-04T16:12:56.684Z,4.03
2023-02-04T16:15:42.502Z,3.77
2023-02-04T16:18:28.213Z,3.84
2023-02-04T16:21:15.361Z,3.68
2023-02-04T16:24:01.048Z,3.58
2023-02-04T16:26:47.019Z,3.48
2023-02-04T16:29:32.931Z,3.50
2023-02-04T16:32:18.776Z,3.37
2023-02-04T16:35:05.079Z,3.42
2023-02-04T16:37:52.319Z,3.42
2023-02-04T16:40:38.041Z,3.39
2023-02-04T16:43:23.950Z,3.37
2023-02-04T16:46:09.820Z,3.28
2023-02-04T16:48:55.862Z,3.25
2023-02-04T16:51:41.657Z,3.15
2023-02-04T16:54:28.904Z,3.18
2023-02-04T16:57:15.190Z,3.16
2023-02-04T17:00:01.199Z,3.12
2023-02-04T17:02:46.977Z,3.10
2023-02-04T17:05:33.456Z,3.09
2023-02-04T17:08:19.561Z,3.00
2023-02-04T17:11:24.503Z,2.97
2023-02-04T17:14:12.026Z,2.91
2023-02-04T17:16:57.894Z,2.88
2023-02-04T17:19:43.598Z,2.78
2023-02-04T17:22:29.472Z,2.71
2023-02-04T17:25:15.349Z,2.73
2023-02-04T17:28:02.545Z,2.60
2023-02-04T17:30:48.889Z,2.63
2023-02-04T17:33:34.736Z,2.60
2023-02-04T17:36:20.865Z,2.55
2023-02-04T17:39:07.479Z,2.53
2023-02-04T17:41:53.522Z,2.39
2023-02-04T17:44:40.621Z,2.39
2023-02-04T17:47:26.505Z,2.32
2023-02-04T17:50:12.806Z,2.32
2023-02-04T17:52:58.720Z,2.31
2023-02-04T17:55:44.636Z,2.24
2023-02-04T17:58:30.859Z,2.22
2023-02-04T18:01:21.689Z,2.17
2023-02-04T18:04:10.223Z,2.12
2023-02-04T18:06:56.267Z,2.02
2023-02-04T18:09:42.084Z,1.99
2023-02-04T18:12:28.200Z,1.97
2023-02-04T18:15:22.057Z,1.92
2023-02-04T18:18:13.540Z,1.88
2023-02-04T18:21:00.154Z,1.81
2023-02-04T18:23:46.330Z,1.72
2023-02-04T18:26:32.558Z,1.67
2023-02-04T18:29:31.040Z,1.58
2023-02-04T18:32:17.775Z,1.51
2023-02-04T18:35:15.443Z,1.47
2023-02-04T18:38:01.603Z,1.38
2023-02-04T18:40:48.239Z,1.32
2023-02-04T18:43:37.416Z,1.28
2023-02-04T18:46:23.785Z,1.20
2023-02-04T18:49:17.469Z,1.15
2023-02-04T18:52:07.699Z,1.09
2023-02-04T18:54:54.535Z,1.03
2023-02-04T18:57:40.725Z,1.00
2023-02-04T19:00:27.812Z,0.98
2023-02-04T19:03:20.061Z,0.97
2023-02-04T19:06:09.886Z,0.93
2023-02-04T19:08:58.394Z,0.88
2023-02-04T19:11:44.743Z,0.88
2023-02-04T19:14:35.108Z,0.84
2023-02-04T19:17:22.489Z,0.83
2023-02-04T19:20:09.374Z,0.84
2023-02-04T19:22:56.842Z,0.80
2023-02-04T19:25:46.543Z,0.79
2023-02-04T19:28:33.982Z,0.76
2023-02-04T19:31:20.029Z,0.77
2023-02-04T19:34:17.577Z,0.78
2023-02-04T19:37:03.316Z,0.79
2023-02-04T19:39:49.288Z,0.80
2023-02-04T19:42:36.856Z,0.81
2023-02-04T19:45:23.750Z,0.80
2023-02-04T19:48:14.985Z,0.81
2023-02-04T19:51:01.542Z,0.84
2023-02-04T19:53:51.502Z,0.85
2023-02-04T19:56:38.437Z,0.85
2023-02-04T19:59:26.912Z,0.85
2023-02-04T20:02:16.581Z,0.85
2023-02-04T20:05:03.256Z,0.85
2023-02-04T20:07:49.177Z,0.86
2023-02-04T20:10:35.428Z,0.85
2023-02-04T20:13:22.690Z,0.86
2023-02-04T20:16:20.019Z,0.87
2023-02-04T20:19:13.507Z,0.86
2023-02-04T20:22:13.384Z,0.88
2023-02-04T20:25:00.453Z,0.88
2023-02-04T20:27:46.635Z,0.89
2023-02-04T20:30:32.848Z,0.88
2023-02-04T20:33:26.408Z,0.89
2023-02-04T20:36:27.138Z,0.88
2023-02-04T20:39:18.424Z,0.90
2023-02-04T20:42:17.510Z,0.92
2023-02-04T20:45:13.815Z,0.94
2023-02-04T20:48:01.197Z,0.94
2023-02-04T20:50:48.968Z,0.96
2023-02-04T20:53:38.126Z,0.96
2023-02-04T20:56:25.416Z,0.95
2023-02-04T20:59:19.264Z,0.95
2023-02-04T21:02:05.522Z,0.94
2023-02-04T21:04:53.876Z,0.93
2023-02-04T21:07:41.226Z,0.93
2023-02-04T21:10:27.067Z,0.92
2023-02-04T21:13:13.268Z,0.93
2023-02-04T21:15:59.466Z,0.91
2023-02-04T21:18:47.346Z,0.88
2023-02-04T21:21:33.375Z,0.85
2023-02-04T21:24:20.592Z,0.84
2023-02-04T21:27:06.248Z,0.81
2023-02-04T21:29:52.075Z,0.76
2023-02-04T21:32:37.886Z,0.75
2023-02-04T21:35:24.512Z,0.71
2023-02-04T21:38:10.463Z,0.67
2023-02-04T21:40:57.402Z,0.62
2023-02-04T21:43:43.229Z,0.57
2023-02-04T21:46:29.275Z,0.51
2023-02-04T21:49:16.777Z,0.46
2023-02-04T21:52:02.871Z,0.40
2023-02-04T21:54:48.763Z,0.34
2023-02-04T21:57:36.016Z,0.30
2023-02-04T22:00:23.756Z,0.24
2023-02-04T22:03:15.585Z,0.19
2023-02-04T22:06:01.598Z,0.13
2023-02-04T22:08:47.768Z,0.09
2023-02-04T22:11:33.576Z,0.03
2023-02-04T22:14:38.683Z,-0.04
2023-02-04T22:17:24.818Z,-0.10
2023-02-04T22:20:11.562Z,-0.14
2023-02-04T22:22:57.465Z,-0.19
2023-02-04T22:25:43.153Z,-0.24
2023-02-04T22:28:29.000Z,-0.28
2023-02-04T22:31:16.269Z,-0.32
2023-02-04T22:34:02.362Z,-0.35
2023-02-04T22:36:48.239Z,-0.41
2023-02-04T22:39:34.107Z,-0.48
2023-02-04T22:42:19.959Z,-0.51
2023-02-04T22:45:06.018Z,-0.55
2023-02-04T22:47:53.401Z,-0.61
2023-02-04T22:50:39.115Z,-0.66
2023-02-04T22:53:24.908Z,-0.68
2023-02-04T22:56:10.703Z,-0.74
2023-02-04T22:58:56.603Z,-0.76
2023-02-04T23:01:42.505Z,-0.80
2023-02-04T23:04:29.600Z,-0.82
2023-02-04T23:07:15.395Z,-0.87
2023-02-04T23:10:01.110Z,-0.91
2023-02-04T23:12:46.875Z,-0.93
2023-02-04T23:15:32.943Z,-0.99
2023-02-04T23:18:19.264Z,-1.00
2023-02-04T23:21:06.573Z,-1.02
2023-02-04T23:23:52.498Z,-1.04
2023-02-04T23:26:38.178Z,-1.08
2023-02-04T23:29:23.916Z,-1.10
2023-02-04T23:32:09.839Z,-1.14
2023-02-04T23:34:55.484Z,-1.16
2023-02-04T23:37:42.700Z,-1.19
2023-02-04T23:40:28.363Z,-1.22
2023-02-04T23:43:14.302Z,-1.25
2023-02-04T23:46:00.341Z,-1.27
2023-02-04T23:48:46.399Z,-1.30
2023-02-04T23:51:32.082Z,-1.32
2023-02-04T23:54:19.284Z,-1.36
2023-02-04T23:57:05.637Z,-1.37
2023-02-04T23:59:51.512Z,-1.41
